createdAt,value
2023-02-21T00:00:54.145Z,60.18
2023-02-21T00:03:39.412Z,60.37
2023-02-21T00:06:27.317Z,60.28
2023-02-21T00:09:12.748Z,61.14
2023-02-21T00:12:04.400Z,60.95
2023-02-21T00:14:49.751Z,60.74
2023-02-21T00:17:35.385Z,61.63
2023-02-21T00:20:20.803Z,62.26
2023-02-21T00:23:07.587Z,62.49
2023-02-21T00:25:52.989Z,62.05
2023-02-21T00:28:38.488Z,61.69
2023-02-21T00:31:24.390Z,61.42
2023-02-21T00:34:10.643Z,61.80
2023-02-21T00:36:56.518Z,61.58
2023-02-21T00:39:41.858Z,61.19
2023-02-21T00:42:27.222Z,61.72
2023-02-21T00:45:12.584Z,61.59
2023-02-21T00:47:58.009Z,62.08
2023-02-21T00:50:43.114Z,62.12
2023-02-21T00:53:28.454Z,61.61
2023-02-21T00:56:13.808Z,62.34
2023-02-21T00:58:59.232Z,62.86
2023-02-21T01:01:44.488Z,62.87
2023-02-21T01:04:29.848Z,62.32
2023-02-21T01:07:15.391Z,61.94
2023-02-21T01:10:01.374Z,61.89
2023-02-21T01:12:46.445Z,62.15
2023-02-21T01:15:32.969Z,61.85
2023-02-21T01:18:18.365Z,61.51
2023-02-21T01:21:03.823Z,61.71
2023-02-21T01:23:50.187Z,61.19
2023-02-21T01:26:35.564Z,61.28
2023-02-21T01:29:22.014Z,61.02
2023-02-21T01:32:08.420Z,60.95
2023-02-21T01:34:53.817Z,60.65
2023-02-21T01:37:39.571Z,61.15
2023-02-21T01:40:25.247Z,61.29
2023-02-21T01:43:10.672Z,61.02
2023-02-21T01:46:09.877Z,61.03
2023-02-21T01:48:55.706Z,60.89
2023-02-21T01:51:49.666Z,60.74
2023-02-21T01:54:36.605Z,60.16
2023-02-21T01:57:22.886Z,60.76
2023-02-21T02:00:09.515Z,60.21
2023-02-21T02:03:18.087Z,60.79
2023-02-21T02:06:09.967Z,61.05
2023-02-21T02:08:56.558Z,60.62
2023-02-21T02:12:06.961Z,60.88
2023-02-21T02:15:02.539Z,60.87
2023-02-21T02:17:37.026Z,61.17
2023-02-21T02:20:41.557Z,61.49
2023-02-21T02:23:42.461Z,61.77
2023-02-21T02:26:57.501Z,61.33
2023-02-21T02:29:32.565Z,61.17
2023-02-21T02:32:09.368Z,61.28
2023-02-21T02:34:40.293Z,61.24
2023-02-21T02:37:13.593Z,61.80
2023-02-21T02:39:48.003Z,61.42
2023-02-21T02:42:37.302Z,62.41
2023-02-21T02:45:27.840Z,61.66
2023-02-21T02:47:59.776Z,62.42
2023-02-21T02:50:29.644Z,62.05
2023-02-21T02:53:01.481Z,62.08
2023-02-21T02:55:38.344Z,61.81
2023-02-21T02:58:05.685Z,62.39
2023-02-21T03:00:34.150Z,62.64
2023-02-21T03:03:45.853Z,62.53
2023-02-21T03:06:38.049Z,62.45
2023-02-21T03:09:21.153Z,62.36
2023-02-21T03:12:08.006Z,62.42
2023-02-21T03:14:43.599Z,62.19
2023-02-21T03:17:13.703Z,62.04
2023-02-21T03:19:42.697Z,61.96
2023-02-21T03:22:11.964Z,62.13
2023-02-21T03:24:40.189Z,61.97
2023-02-21T03:27:08.446Z,62.03
2023-02-21T03:30:01.074Z,61.89
2023-02-21T03:32:31.394Z,61.79
2023-02-21T03:34:59.673Z,62.16
2023-02-21T03:37:34.413Z,61.91
2023-02-21T03:40:02.517Z,61.56
2023-02-21T03:42:32.089Z,61.40
2023-02-21T03:44:59.241Z,60.78
2023-02-21T03:47:26.849Z,61.03
2023-02-21T03:49:53.792Z,61.32
2023-02-21T03:52:21.065Z,60.86
2023-02-21T03:54:47.925Z,60.91
2023-02-21T03:57:18.034Z,60.78
2023-02-21T03:59:46.812Z,60.47
2023-02-21T04:02:14.387Z,59.97
2023-02-21T04:04:41.998Z,60.09
2023-02-21T04:07:12.918Z,60.30
2023-02-21T04:09:39.755Z,59.88
2023-02-21T04:12:08.174Z,59.86
2023-02-21T04:14:36.821Z,60.13
2023-02-21T04:17:03.946Z,60.76
2023-02-21T04:19:31.262Z,60.69
2023-02-21T04:21:58.210Z,60.80
2023-02-21T04:24:25.995Z,61.03
2023-02-21T04:26:52.922Z,60.88
2023-02-21T04:29:20.305Z,61.02
2023-02-21T04:31:47.531Z,61.29
2023-02-21T04:34:16.611Z,61.25
2023-02-21T04:36:44.793Z,61.55
2023-02-21T04:39:11.681Z,61.37
2023-02-21T04:41:39.338Z,61.65
2023-02-21T04:44:06.649Z,61.80
2023-02-21T04:46:33.889Z,61.15
2023-02-21T04:49:01.570Z,61.32
2023-02-21T04:51:28.366Z,61.27
2023-02-21T04:53:55.610Z,61.82
2023-02-21T04:56:25.196Z,61.31
2023-02-21T04:58:52.293Z,61.23
2023-02-21T05:01:20.060Z,60.93
2023-02-21T05:03:47.664Z,62.81
2023-02-21T05:06:19.325Z,63.06
2023-02-21T05:08:46.033Z,62.63
2023-02-21T05:11:13.261Z,62.06
2023-02-21T05:13:40.588Z,61.79
2023-02-21T05:16:07.548Z,62.15
2023-02-21T05:18:34.821Z,62.03
2023-02-21T05:21:11.734Z,62.17
2023-02-21T05:23:40.939Z,62.00
2023-02-21T05:26:11.478Z,61.89
2023-02-21T05:28:39.676Z,62.28
2023-02-21T05:31:06.903Z,61.81
2023-02-21T05:33:33.775Z,61.90
2023-02-21T05:36:00.689Z,62.18
2023-02-21T05:38:27.542Z,61.90
2023-02-21T05:40:54.433Z,62.76
2023-02-21T05:43:21.468Z,62.54
2023-02-21T05:45:48.236Z,62.37
2023-02-21T05:48:15.446Z,61.96
2023-02-21T05:50:42.138Z,61.67
2023-02-21T05:53:10.471Z,61.98
2023-02-21T05:55:37.828Z,61.52
2023-02-21T05:58:04.951Z,60.92
2023-02-21T06:00:32.032Z,61.04
2023-02-21T06:02:58.803Z,61.02
2023-02-21T06:05:25.739Z,60.83
2023-02-21T06:07:52.709Z,60.88
2023-02-21T06:10:19.944Z,60.63
2023-02-21T06:12:47.122Z,60.16
2023-02-21T06:15:13.980Z,59.84
2023-02-21T06:17:41.853Z,59.71
2023-02-21T06:20:15.102Z,59.56
2023-02-21T06:22:41.936Z,59.05
2023-02-21T06:25:09.448Z,58.97
2023-02-21T06:27:36.242Z,58.24
2023-02-21T06:30:04.298Z,58.00
2023-02-21T06:32:31.230Z,57.59
2023-02-21T06:34:57.953Z,56.69
2023-02-21T06:37:24.794Z,56.14
2023-02-21T06:39:51.749Z,56.24
2023-02-21T06:42:19.157Z,56.43
2023-02-21T06:44:47.297Z,56.06
2023-02-21T06:47:14.324Z,55.42
2023-02-21T06:49:41.195Z,54.95
2023-02-21T06:52:08.967Z,54.65
2023-02-21T06:54:36.075Z,54.09
2023-02-21T06:57:02.960Z,53.71
2023-02-21T06:59:29.814Z,53.54
2023-02-21T07:01:56.955Z,52.82
2023-02-21T07:04:24.598Z,51.88
2023-02-21T07:06:52.157Z,51.99
2023-02-21T07:09:19.010Z,52.07
2023-02-21T07:11:47.078Z,51.31
2023-02-21T07:14:14.476Z,50.26
2023-02-21T07:16:41.443Z,50.36
2023-02-21T07:19:08.273Z,49.57
2023-02-21T07:21:35.011Z,48.76
2023-02-21T07:24:02.003Z,48.10
2023-02-21T07:26:28.731Z,48.30
2023-02-21T07:28:55.555Z,46.97
2023-02-21T07:31:22.762Z,47.23
2023-02-21T07:33:49.709Z,47.04
2023-02-21T07:36:17.107Z,46.32
2023-02-21T07:38:43.930Z,46.12
2023-02-21T07:41:10.921Z,46.00
2023-02-21T07:43:39.253Z,44.81
2023-02-21T07:46:11.089Z,44.78
2023-02-21T07:48:38.461Z,44.68
2023-02-21T07:51:07.373Z,43.81
2023-02-21T07:53:34.303Z,43.98
2023-02-21T07:56:01.116Z,43.31
2023-02-21T07:58:27.889Z,43.65
2023-02-21T08:00:55.725Z,43.60
2023-02-21T08:03:23.293Z,44.20
2023-02-21T08:05:50.357Z,43.15
2023-02-21T08:08:17.506Z,43.92
2023-02-21T08:10:44.362Z,43.54
2023-02-21T08:13:11.215Z,43.09
2023-02-21T08:15:37.904Z,43.22
2023-02-21T08:18:04.659Z,43.87
2023-02-21T08:20:31.886Z,43.80
2023-02-21T08:22:58.978Z,44.45
2023-02-21T08:25:25.765Z,42.83
2023-02-21T08:27:55.377Z,42.50
2023-02-21T08:30:22.570Z,42.76
2023-02-21T08:32:51.268Z,43.11
2023-02-21T08:35:19.764Z,42.31
2023-02-21T08:37:47.950Z,42.58
2023-02-21T08:40:16.246Z,42.22
2023-02-21T08:42:43.187Z,41.73
2023-02-21T08:45:16.210Z,42.04
2023-02-21T08:47:42.995Z,42.47
2023-02-21T08:50:10.295Z,41.84
2023-02-21T08:52:37.037Z,41.87
2023-02-21T08:55:03.971Z,41.72
2023-02-21T08:57:30.706Z,40.97
2023-02-21T08:59:57.539Z,40.46
2023-02-21T09:02:25.803Z,39.99
2023-02-21T09:04:53.090Z,40.43
2023-02-21T09:07:21.813Z,38.62
2023-02-21T09:09:48.653Z,40.38
2023-02-21T09:12:15.518Z,40.43
2023-02-21T09:14:43.295Z,39.66
2023-02-21T09:17:12.882Z,39.17
2023-02-21T09:19:39.753Z,39.06
2023-02-21T09:22:10.578Z,38.36
2023-02-21T09:24:38.183Z,37.78
2023-02-21T09:27:05.855Z,38.22
2023-02-21T09:29:45.545Z,37.44
2023-02-21T09:32:14.211Z,37.16
2023-02-21T09:34:41.609Z,36.32
2023-02-21T09:37:08.715Z,37.29
2023-02-21T09:39:39.108Z,36.40
2023-02-21T09:42:06.033Z,37.36
2023-02-21T09:44:32.817Z,37.16
2023-02-21T09:47:06.642Z,36.24
2023-02-21T09:49:41.726Z,35.39
2023-02-21T09:52:21.991Z,34.84
2023-02-21T09:54:54.848Z,34.67
2023-02-21T09:57:21.713Z,33.93
2023-02-21T09:59:49.393Z,33.64
2023-02-21T10:02:38.008Z,32.38
2023-02-21T10:05:18.026Z,32.57
2023-02-21T10:08:16.449Z,30.88
2023-02-21T10:10:47.446Z,29.18
2023-02-21T10:13:32.638Z,28.18
2023-02-21T10:16:13.312Z,27.60
2023-02-21T10:18:50.625Z,25.95
2023-02-21T10:21:23.325Z,25.62
2023-02-21T10:23:51.938Z,24.88
2023-02-21T10:26:26.855Z,22.43
2023-02-21T10:28:56.747Z,22.66
2023-02-21T10:31:39.330Z,21.77
2023-02-21T10:34:09.898Z,21.31
2023-02-21T10:36:36.786Z,20.56
2023-02-21T10:39:07.989Z,19.86
2023-02-21T10:41:37.990Z,18.32
2023-02-21T10:44:11.376Z,16.05
2023-02-21T10:46:45.687Z,15.33
2023-02-21T10:49:29.386Z,15.70
2023-02-21T10:52:17.274Z,15.06
2023-02-21T10:55:03.391Z,15.34
2023-02-21T10:57:34.264Z,14.67
2023-02-21T11:00:10.084Z,14.38
2023-02-21T11:02:40.877Z,14.02
2023-02-21T11:05:14.780Z,14.93
2023-02-21T11:07:43.331Z,14.68
2023-02-21T11:10:36.112Z,14.59
2023-02-21T11:13:07.927Z,14.47
2023-02-21T11:15:35.001Z,14.54
2023-02-21T11:18:14.999Z,14.83
2023-02-21T11:20:45.025Z,14.82
2023-02-21T11:23:26.348Z,14.28
2023-02-21T11:26:05.711Z,14.67
2023-02-21T11:28:38.115Z,14.89
2023-02-21T11:31:17.559Z,13.89
2023-02-21T11:33:57.616Z,13.76
2023-02-21T11:36:30.348Z,14.34
2023-02-21T11:39:16.486Z,14.52
2023-02-21T11:41:50.358Z,14.69
2023-02-21T11:44:27.019Z,15.17
2023-02-21T11:47:14.153Z,14.08
2023-02-21T11:49:51.839Z,14.11
2023-02-21T11:52:26.628Z,14.36
2023-02-21T11:54:53.361Z,14.14
2023-02-21T11:57:23.186Z,14.05
2023-02-21T11:59:59.354Z,14.03
2023-02-21T12:03:10.104Z,13.32
2023-02-21T12:05:50.169Z,13.94
2023-02-21T12:08:35.369Z,13.67
2023-02-21T12:11:14.655Z,14.97
2023-02-21T12:13:50.410Z,15.06
2023-02-21T12:16:25.881Z,15.55
2023-02-21T12:19:32.537Z,15.46
2023-02-21T12:22:18.150Z,16.08
2023-02-21T12:25:14.183Z,16.34
2023-02-21T12:27:59.041Z,16.70
2023-02-21T12:30:49.910Z,17.26
2023-02-21T12:33:28.988Z,18.32
2023-02-21T12:36:15.868Z,19.02
2023-02-21T12:38:48.853Z,18.02
2023-02-21T12:41:38.243Z,17.89
2023-02-21T12:44:22.242Z,17.61
2023-02-21T12:46:58.180Z,17.30
2023-02-21T12:49:40.062Z,17.89
2023-02-21T12:52:15.270Z,17.42
2023-02-21T12:54:45.065Z,17.51
2023-02-21T12:57:15.138Z,17.39
2023-02-21T12:59:54.875Z,17.49
2023-02-21T13:02:44.737Z,17.14
2023-02-21T13:05:18.865Z,17.48
2023-02-21T13:07:47.315Z,17.25
2023-02-21T13:10:19.418Z,16.64
2023-02-21T13:13:03.871Z,16.19
2023-02-21T13:15:31.653Z,16.26
2023-02-21T13:18:01.994Z,16.41
2023-02-21T13:20:36.635Z,16.24
2023-02-21T13:23:40.832Z,16.23
2023-02-21T13:26:26.488Z,15.80
2023-02-21T13:28:57.436Z,15.84
2023-02-21T13:31:26.738Z,15.81
2023-02-21T13:34:03.256Z,16.14
2023-02-21T13:36:40.032Z,16.08
2023-02-21T13:39:09.801Z,16.14
2023-02-21T13:41:42.755Z,16.18
2023-02-21T13:44:19.554Z,15.92
2023-02-21T13:46:46.379Z,15.21
2023-02-21T13:49:44.480Z,14.72
2023-02-21T13:52:23.365Z,15.08
2023-02-21T13:55:29.757Z,15.34
2023-02-21T13:57:57.570Z,15.59
2023-02-21T14:00:24.306Z,15.47
2023-02-21T14:03:00.529Z,15.25
2023-02-21T14:05:47.788Z,15.50
2023-02-21T14:08:35.590Z,15.29
2023-02-21T14:11:05.442Z,14.98
2023-02-21T14:13:36.579Z,15.06
2023-02-21T14:16:12.441Z,14.98
2023-02-21T14:18:39.288Z,14.98
2023-02-21T14:21:43.118Z,15.19
2023-02-21T14:24:09.714Z,15.12
2023-02-21T14:27:01.818Z,14.98
2023-02-21T14:29:43.711Z,15.38
2023-02-21T14:32:10.637Z,15.83
2023-02-21T14:34:38.517Z,15.41
2023-02-21T14:37:28.332Z,15.40
2023-02-21T14:40:00.033Z,15.70
2023-02-21T14:42:26.675Z,15.68
2023-02-21T14:45:11.816Z,16.01
2023-02-21T14:48:00.179Z,15.96
2023-02-21T14:51:04.331Z,16.15
2023-02-21T14:54:08.846Z,16.61
2023-02-21T14:56:59.650Z,17.20
2023-02-21T14:59:35.480Z,17.68
2023-02-21T15:02:14.237Z,17.67
2023-02-21T15:04:58.148Z,17.95
2023-02-21T15:07:33.161Z,17.93
2023-02-21T15:10:07.181Z,18.41
2023-02-21T15:12:39.052Z,19.69
2023-02-21T15:15:14.034Z,20.87
2023-02-21T15:17:40.806Z,21.53
2023-02-21T15:20:16.895Z,22.70
2023-02-21T15:22:44.117Z,23.50
2023-02-21T15:25:11.131Z,24.43
2023-02-21T15:27:59.022Z,25.65
2023-02-21T15:30:35.548Z,26.76
2023-02-21T15:33:05.438Z,27.30
2023-02-21T15:35:36.329Z,27.62
2023-02-21T15:38:06.471Z,28.33
2023-02-21T15:40:33.397Z,29.13
2023-02-21T15:43:01.634Z,29.68
2023-02-21T15:45:45.110Z,30.48
2023-02-21T15:48:12.030Z,31.43
2023-02-21T15:50:46.969Z,31.74
2023-02-21T15:53:24.562Z,31.98
2023-02-21T15:55:52.856Z,32.89
2023-02-21T15:58:23.909Z,32.94
2023-02-21T16:01:08.457Z,32.93
2023-02-21T16:03:41.682Z,33.69
2023-02-21T16:06:28.697Z,32.90
2023-02-21T16:09:17.197Z,33.29
2023-02-21T16:11:48.532Z,33.53
2023-02-21T16:14:38.812Z,33.52
2023-02-21T16:17:24.102Z,34.45
2023-02-21T16:19:53.965Z,34.85
2023-02-21T16:22:23.886Z,35.74
2023-02-21T16:24:51.247Z,35.96
2023-02-21T16:27:18.791Z,35.71
2023-02-21T16:29:45.643Z,35.72
2023-02-21T16:32:20.072Z,35.78
2023-02-21T16:34:47.556Z,36.10
2023-02-21T16:37:14.766Z,36.33
2023-02-21T16:39:42.617Z,36.65
2023-02-21T16:42:09.620Z,36.80
2023-02-21T16:44:36.445Z,37.41
2023-02-21T16:47:03.249Z,38.07
2023-02-21T16:49:30.005Z,38.58
2023-02-21T16:51:56.918Z,37.71
2023-02-21T16:54:23.893Z,38.34
2023-02-21T16:56:52.306Z,39.03
2023-02-21T16:59:22.010Z,38.62
2023-02-21T17:01:48.967Z,39.24
2023-02-21T17:04:15.701Z,38.70
2023-02-21T17:06:42.843Z,38.40
2023-02-21T17:09:19.156Z,38.97
2023-02-21T17:11:46.285Z,39.31
2023-02-21T17:14:13.084Z,39.94
2023-02-21T17:16:39.894Z,40.36
2023-02-21T17:19:06.937Z,40.45
2023-02-21T17:21:33.828Z,38.50
2023-02-21T17:24:00.561Z,40.35
2023-02-21T17:26:27.452Z,40.12
2023-02-21T17:28:54.150Z,40.84
2023-02-21T17:31:20.973Z,40.76
2023-02-21T17:33:48.165Z,41.10
2023-02-21T17:36:19.287Z,40.73
2023-02-21T17:38:46.406Z,40.47
2023-02-21T17:41:15.669Z,40.93
2023-02-21T17:43:42.862Z,41.46
2023-02-21T17:46:11.611Z,41.17
2023-02-21T17:48:40.658Z,41.12
2023-02-21T17:51:07.971Z,41.73
2023-02-21T17:53:34.927Z,41.70
2023-02-21T17:56:02.096Z,42.34
2023-02-21T17:58:36.689Z,42.08
2023-02-21T18:01:04.165Z,41.83
2023-02-21T18:03:30.908Z,40.47
2023-02-21T18:05:59.047Z,41.29
2023-02-21T18:08:25.807Z,41.64
2023-02-21T18:10:52.542Z,41.94
2023-02-21T18:13:23.328Z,42.41
2023-02-21T18:15:50.178Z,42.53
2023-02-21T18:18:17.009Z,42.25
2023-02-21T18:20:44.158Z,43.40
2023-02-21T18:23:11.017Z,43.11
2023-02-21T18:25:37.898Z,42.65
2023-02-21T18:28:05.038Z,42.69
2023-02-21T18:30:31.868Z,43.31
2023-02-21T18:32:58.587Z,44.08
2023-02-21T18:35:25.309Z,42.73
2023-02-21T18:37:52.091Z,43.49
2023-02-21T18:40:19.413Z,43.84
2023-02-21T18:42:47.672Z,44.77
2023-02-21T18:45:14.497Z,44.97
2023-02-21T18:47:42.246Z,45.46
2023-02-21T18:50:09.430Z,45.78
2023-02-21T18:52:36.251Z,44.73
2023-02-21T18:55:04.081Z,45.05
2023-02-21T18:57:31.438Z,44.05
2023-02-21T18:59:58.428Z,43.95
2023-02-21T19:02:25.559Z,43.16
2023-02-21T19:04:52.330Z,43.94
2023-02-21T19:07:19.082Z,45.27
2023-02-21T19:09:46.884Z,45.20
2023-02-21T19:12:13.769Z,44.95
2023-02-21T19:14:40.635Z,44.81
2023-02-21T19:17:08.663Z,45.67
2023-02-21T19:19:36.441Z,46.33
2023-02-21T19:22:04.019Z,45.51
2023-02-21T19:24:30.889Z,45.60
2023-02-21T19:26:57.673Z,45.95
2023-02-21T19:29:24.449Z,45.96
2023-02-21T19:31:51.466Z,45.11
2023-02-21T19:34:18.279Z,45.79
2023-02-21T19:36:45.029Z,45.46
2023-02-21T19:39:12.037Z,45.58
2023-02-21T19:41:40.425Z,44.88
2023-02-21T19:44:08.598Z,43.75
2023-02-21T19:46:35.679Z,43.88
2023-02-21T19:49:07.050Z,43.41
2023-02-21T19:51:34.283Z,43.34
2023-02-21T19:54:01.534Z,42.86
2023-02-21T19:56:28.362Z,42.53
2023-02-21T19:58:55.358Z,41.62
2023-02-21T20:01:23.095Z,41.55
2023-02-21T20:03:50.837Z,41.63
2023-02-21T20:06:18.414Z,40.88
2023-02-21T20:08:48.305Z,41.91
2023-02-21T20:11:18.804Z,42.36
2023-02-21T20:13:45.982Z,41.89
2023-02-21T20:16:17.031Z,42.71
2023-02-21T20:18:44.255Z,42.19
2023-02-21T20:21:18.678Z,43.11
2023-02-21T20:23:45.579Z,43.50
2023-02-21T20:26:13.005Z,44.00
2023-02-21T20:28:39.821Z,43.36
2023-02-21T20:31:08.587Z,44.46
2023-02-21T20:33:38.802Z,44.95
2023-02-21T20:36:06.376Z,45.52
2023-02-21T20:38:33.638Z,45.65
2023-02-21T20:41:00.557Z,45.99
2023-02-21T20:43:27.444Z,46.95
2023-02-21T20:45:54.883Z,47.47
2023-02-21T20:48:25.619Z,48.15
2023-02-21T20:50:53.682Z,48.64
2023-02-21T20:53:20.426Z,49.13
2023-02-21T20:55:47.618Z,49.64
2023-02-21T20:58:14.530Z,50.20
2023-02-21T21:00:42.591Z,50.68
2023-02-21T21:03:12.085Z,49.78
2023-02-21T21:05:38.883Z,50.47
2023-02-21T21:08:05.631Z,50.54
2023-02-21T21:10:32.835Z,50.33
2023-02-21T21:12:59.775Z,50.87
2023-02-21T21:15:26.556Z,50.25
2023-02-21T21:17:53.320Z,49.42
2023-02-21T21:20:21.589Z,50.60
2023-02-21T21:22:48.522Z,49.24
2023-02-21T21:25:17.015Z,50.61
2023-02-21T21:27:44.798Z,50.07
2023-02-21T21:30:13.299Z,50.65
2023-02-21T21:32:40.718Z,50.74
2023-02-21T21:35:07.688Z,50.71
2023-02-21T21:37:35.871Z,50.38
2023-02-21T21:40:18.718Z,51.24
2023-02-21T21:42:48.984Z,50.99
2023-02-21T21:45:29.106Z,50.11
2023-02-21T21:48:00.221Z,50.59
2023-02-21T21:50:27.143Z,50.32
2023-02-21T21:52:58.200Z,49.32
2023-02-21T21:55:27.879Z,49.13
2023-02-21T21:57:55.976Z,50.05
2023-02-21T22:00:27.086Z,49.65
2023-02-21T22:02:59.669Z,49.03
2023-02-21T22:05:28.753Z,49.77
2023-02-21T22:07:56.125Z,48.53
2023-02-21T22:10:24.308Z,46.38
2023-02-21T22:12:52.593Z,45.58
2023-02-21T22:15:20.880Z,44.83
2023-02-21T22:17:48.343Z,43.23
2023-02-21T22:20:20.956Z,42.29
2023-02-21T22:22:49.631Z,41.58
2023-02-21T22:25:16.917Z,41.06
2023-02-21T22:27:43.685Z,41.10
2023-02-21T22:30:13.768Z,41.67
2023-02-21T22:32:44.306Z,41.73
2023-02-21T22:35:18.203Z,41.92
2023-02-21T22:37:50.683Z,42.38
2023-02-21T22:40:25.573Z,41.59
2023-02-21T22:42:56.240Z,41.99
2023-02-21T22:45:24.210Z,41.13
2023-02-21T22:47:52.343Z,40.95
2023-02-21T22:50:20.408Z,41.49
2023-02-21T22:52:57.417Z,41.22
2023-02-21T22:55:26.005Z,41.17
2023-02-21T22:57:53.200Z,41.77
2023-02-21T23:00:23.809Z,42.21
2023-02-21T23:02:51.768Z,42.85
2023-02-21T23:05:21.684Z,42.49
2023-02-21T23:07:53.519Z,43.10
2023-02-21T23:10:23.851Z,43.10
2023-02-21T23:12:52.934Z,43.20
2023-02-21T23:15:20.261Z,43.06
2023-02-21T23:17:48.390Z,43.14
2023-02-21T23:20:22.100Z,43.91
2023-02-21T23:22:54.260Z,43.92
2023-02-21T23:25:25.624Z,44.68
2023-02-21T23:27:57.471Z,45.26
2023-02-21T23:30:36.387Z,45.58
2023-02-21T23:33:06.339Z,46.00
2023-02-21T23:35:34.904Z,45.60
2023-02-21T23:38:01.947Z,46.10
2023-02-21T23:40:31.571Z,46.26
2023-02-21T23:42:58.389Z,46.69
2023-02-21T23:45:26.391Z,46.84
2023-02-21T23:47:55.230Z,47.44
2023-02-21T23:50:24.654Z,48.23
2023-02-21T23:52:53.195Z,47.94
2023-02-21T23:55:25.036Z,48.96
2023-02-21T23:57:52.914Z,49.62
